Time;durP1;ratioP1;P1;durP2;ratioP2;P2;SDS_P1;SDS_P2;PMS_P1;PMS_P2;Temp;Humidity;BMP_temperature;BMP_pressure;BME280_temperature;BME280_humidity;BME280_pressure;Samples;Min_cycle;Max_cycle;Signal;HPM_P1;HPM_P2
2022/12/21 00:09:41;;;;;;;;;;;;;;;10.51;96.30;101077.56;20676443;28;19928;-68
2022/12/21 00:20:02;;;;;;;;;;;;;;;10.53;96.72;101080.94;20682027;28;19930;-68
2022/12/21 00:30:24;;;;;;;;;;;;;;;10.55;96.21;101047.31;20672660;28;19936;-69
2022/12/21 00:40:45;;;;;;;;;;;;;;;10.59;96.47;101072.19;20674779;28;19926;-69
2022/12/21 00:51:08;;;;;;;;;;;;;;;10.59;96.05;101092.88;20696631;28;19929;-70
2022/12/21 01:01:31;;;;;;;;;;;;;;;10.54;96.32;101076.63;20698113;28;20096;-70
2022/12/21 01:11:52;;;;;;;;;;;;;;;10.49;96.41;101094.03;20695951;28;20108;-71
2022/12/21 01:22:14;;;;;;;;;;;;;;;10.40;95.73;101120.94;20709192;28;19925;-71
2022/12/21 01:32:36;;;;;;;;;;;;;;;10.32;96.48;101120.31;20685459;28;19933;-70
2022/12/21 01:42:58;;;;;;;;;;;;;;;10.26;95.72;101151.47;20712288;28;20296;-70
2022/12/21 01:53:37;;;;;;;;;;;;;;;10.19;95.75;101147.34;20692510;28;19925;-71
2022/12/21 02:03:58;;;;;;;;;;;;;;;10.11;95.33;101134.59;20691043;28;19929;-71
2022/12/21 02:14:20;;;;;;;;;;;;;;;10.07;94.80;101139.84;20687092;28;19969;-70
2022/12/21 02:24:54;;;;;;;;;;;;;;;10.00;95.17;101130.50;20701086;28;20393;-71
2022/12/21 02:35:18;;;;;;;;;;;;;;;9.88;95.17;101152.34;20668684;28;19992;-71
2022/12/21 02:45:40;;;;;;;;;;;;;;;9.85;96.14;101130.88;20691628;28;19930;-71
2022/12/21 02:56:01;;;;;;;;;;;;;;;9.73;95.71;101141.47;20689929;28;20611;-71
2022/12/21 03:06:42;;;;;;;;;;;;;;;9.61;96.09;101152.06;20681735;28;19933;-71
2022/12/21 03:17:21;;;;;;;;;;;;;;;9.53;96.63;101138.44;20699078;28;19992;-70
2022/12/21 03:27:46;;;;;;;;;;;;;;;9.53;96.75;101133.28;20672961;28;19999;-71
2022/12/21 03:38:12;;;;;;;;;;;;;;;9.51;96.18;101135.03;20678234;28;19930;-70
2022/12/21 03:48:35;;;;;;;;;;;;;;;9.36;95.76;101130.22;20686809;28;19980;-70
2022/12/21 03:58:58;;;;;;;;;;;;;;;9.26;96.47;101115.78;20690882;28;19952;-70
2022/12/21 04:09:21;;;;;;;;;;;;;;;9.14;96.46;101120.28;20681550;28;20541;-71
2022/12/21 04:19:58;;;;;;;;;;;;;;;9.06;97.10;101122.16;20701038;28;19929;-70
2022/12/21 04:30:21;;;;;;;;;;;;;;;9.01;97.64;101121.41;20680231;28;19936;-70
2022/12/21 04:40:42;;;;;;;;;;;;;;;8.97;97.38;101106.03;20734441;23;19926;-66
2022/12/21 04:51:05;;;;;;;;;;;;;;;8.93;97.88;101100.06;20686270;28;19958;-66
2022/12/21 05:01:26;;;;;;;;;;;;;;;8.91;97.87;101103.56;20691596;28;19930;-66
2022/12/21 05:11:48;;;;;;;;;;;;;;;8.93;98.11;101105.25;20688304;28;19945;-66
2022/12/21 05:22:10;;;;;;;;;;;;;;;8.91;98.05;101114.72;20684679;28;19929;-65
2022/12/21 05:32:31;;;;;;;;;;;;;;;8.90;98.01;101105.28;20691573;28;19933;-66
2022/12/21 05:42:52;;;;;;;;;;;;;;;8.84;97.73;101108.00;20704533;28;19957;-66
2022/12/21 05:53:14;;;;;;;;;;;;;;;8.82;97.63;101111.47;20705618;28;19973;-66
2022/12/21 06:03:36;;;;;;;;;;;;;;;8.67;97.10;101112.59;20720985;28;19910;-65
2022/12/21 06:13:57;;;;;;;;;;;;;;;8.59;97.08;101117.03;20693755;28;19926;-66
2022/12/21 06:24:18;;;;;;;;;;;;;;;8.52;97.71;101102.53;20689381;28;19925;-66
2022/12/21 06:34:40;;;;;;;;;;;;;;;8.48;97.74;101110.38;20723470;28;20036;-66
2022/12/21 06:45:01;;;;;;;;;;;;;;;8.45;98.47;101107.81;20684518;28;19926;-66
2022/12/21 06:55:23;;;;;;;;;;;;;;;8.44;98.49;101099.22;20678046;28;20404;-66
2022/12/21 07:05:44;;;;;;;;;;;;;;;8.45;98.36;101110.41;20682198;28;19933;-66
2022/12/21 07:16:06;;;;;;;;;;;;;;;8.41;98.24;101129.38;20694416;28;19929;-66
2022/12/21 07:26:28;;;;;;;;;;;;;;;8.34;98.54;101118.31;20683871;28;19925;-66
2022/12/21 07:36:49;;;;;;;;;;;;;;;8.34;98.58;101126.06;20673656;28;19972;-65
2022/12/21 07:47:10;;;;;;;;;;;;;;;8.34;98.49;101130.34;20661749;28;20544;-66
2022/12/21 07:57:32;;;;;;;;;;;;;;;8.37;97.77;101123.41;20680667;28;19932;-65
2022/12/21 08:07:54;;;;;;;;;;;;;;;8.34;98.90;101133.78;20717910;28;19926;-66
2022/12/21 08:18:15;;;;;;;;;;;;;;;8.30;98.39;101132.13;20689349;28;19929;-65
2022/12/21 08:28:37;;;;;;;;;;;;;;;8.29;98.85;101148.50;20659669;28;19925;-65
2022/12/21 08:38:58;;;;;;;;;;;;;;;8.26;98.65;101152.84;20683832;28;19933;-68
2022/12/21 08:49:30;;;;;;;;;;;;;;;8.31;98.63;101148.47;20693688;28;19925;-65
2022/12/21 08:59:52;;;;;;;;;;;;;;;8.36;99.21;101132.03;20690972;28;19926;-65
2022/12/21 09:10:13;;;;;;;;;;;;;;;8.42;98.80;101126.78;20674140;28;19925;-67
2022/12/21 09:20:35;;;;;;;;;;;;;;;8.49;99.04;101141.28;20692549;28;19983;-64
2022/12/21 09:31:04;;;;;;;;;;;;;;;8.52;99.19;101153.25;20681763;28;19926;-64
2022/12/21 09:41:32;;;;;;;;;;;;;;;8.61;98.66;101153.09;20689469;28;19926;-64
2022/12/21 09:51:56;;;;;;;;;;;;;;;8.67;98.90;101138.38;20692105;28;19980;-64
2022/12/21 10:02:38;;;;;;;;;;;;;;;8.74;98.51;101124.50;20668136;28;20146;-66
2022/12/21 10:13:20;;;;;;;;;;;;;;;8.86;99.05;101123.44;20673629;28;19925;-67
2022/12/21 10:23:44;;;;;;;;;;;;;;;8.95;98.56;101105.19;20684333;28;19933;-67
2022/12/21 10:34:35;;;;;;;;;;;;;;;9.05;98.25;101096.38;20705916;22;19991;-69
2022/12/21 10:44:58;;;;;;;;;;;;;;;9.22;97.44;101106.38;20715054;28;19925;-69
2022/12/21 10:55:19;;;;;;;;;;;;;;;9.24;97.23;101104.63;20688193;28;19953;-70
2022/12/21 11:05:42;;;;;;;;;;;;;;;9.47;97.68;101090.34;20681315;28;19976;-69
2022/12/21 11:16:05;;;;;;;;;;;;;;;9.50;96.12;101076.53;20695028;28;20587;-70
2022/12/21 11:26:30;;;;;;;;;;;;;;;9.60;96.01;101067.69;20687106;28;19929;-70
2022/12/21 11:36:57;;;;;;;;;;;;;;;9.69;95.88;101072.63;20675614;28;19948;-70
2022/12/21 11:47:25;;;;;;;;;;;;;;;9.68;94.65;101065.78;20690001;28;20336;-70
2022/12/21 11:58:16;;;;;;;;;;;;;;;9.68;94.89;101051.16;20684994;28;19933;-70
2022/12/21 12:08:58;;;;;;;;;;;;;;;9.66;94.27;101042.56;20669722;28;20393;-72
2022/12/21 12:19:29;;;;;;;;;;;;;;;9.74;94.00;101039.81;20688107;28;19941;-71
2022/12/21 12:30:04;;;;;;;;;;;;;;;9.75;93.63;101018.25;20687465;28;19977;-71
2022/12/21 12:40:28;;;;;;;;;;;;;;;9.62;92.75;101022.84;20689588;28;19925;-71
2022/12/21 12:51:00;;;;;;;;;;;;;;;9.65;92.87;101024.53;20673775;28;19926;-71
2022/12/21 13:01:29;;;;;;;;;;;;;;;9.59;92.24;101029.84;20685159;28;19976;-71
2022/12/21 13:12:00;;;;;;;;;;;;;;;9.52;90.80;101030.84;20690550;28;20010;-71
2022/12/21 13:22:22;;;;;;;;;;;;;;;9.34;90.21;101013.19;20691757;28;20149;-71
2022/12/21 13:32:48;;;;;;;;;;;;;;;9.21;90.43;101012.59;20672762;28;19934;-71
2022/12/21 13:43:13;;;;;;;;;;;;;;;9.12;90.02;101016.22;20687645;28;19925;-72
2022/12/21 13:53:37;;;;;;;;;;;;;;;9.11;90.08;101005.94;20693904;28;19929;-71
2022/12/21 14:04:06;;;;;;;;;;;;;;;9.01;90.62;101007.84;20702347;28;19933;-71
2022/12/21 14:14:42;;;;;;;;;;;;;;;9.00;89.68;101002.72;20696280;28;19930;-71
2022/12/21 14:25:08;;;;;;;;;;;;;;;8.91;90.36;100985.72;20700058;28;19925;-72
2022/12/21 14:35:36;;;;;;;;;;;;;;;8.88;90.68;100983.19;20686646;28;19925;-71
2022/12/21 14:46:24;;;;;;;42.72;18.20;;;;;;;8.84;90.72;100986.72;20683518;28;19926;-71
2022/12/21 14:57:08;;;;;;;43.80;19.70;;;;;;;8.77;90.91;100979.97;20701174;28;20038;-71
2022/12/21 15:07:42;;;;;;;45.67;19.33;;;;;;;8.63;91.21;100958.75;20693087;28;20094;-72
2022/12/21 15:18:36;;;;;;;39.38;18.50;;;;;;;8.54;91.49;100961.53;20687942;28;20236;-71
2022/12/21 15:29:03;;;;;;;36.55;18.90;;;;;;;8.41;92.03;100941.16;20690819;28;20042;-72
2022/12/21 15:39:29;;;;;;;46.33;21.73;;;;;;;8.39;92.39;100951.50;20683329;28;20105;-71
2022/12/21 15:50:18;;;;;;;43.28;21.73;;;;;;;8.41;91.78;100949.75;20667955;28;20116;-71
2022/12/21 16:00:41;;;;;;;47.33;22.60;;;;;;;8.36;91.85;100953.28;20676730;28;20038;-71
2022/12/21 16:11:03;;;;;;;40.72;21.70;;;;;;;8.32;91.95;100952.50;20671843;28;20038;-70
2022/12/21 16:21:33;;;;;;;44.22;22.60;;;;;;;8.36;91.51;100967.03;20681974;28;20046;-71
2022/12/21 16:31:55;;;;;;;41.17;21.27;;;;;;;8.45;91.46;100961.72;20668130;28;20045;-71
2022/12/21 16:42:17;;;;;;;43.45;22.27;;;;;;;8.50;91.76;100965.03;20688201;28;20059;-71
2022/12/21 16:52:44;;;;;;;41.60;21.60;;;;;;;8.54;91.57;100960.66;20676597;28;20144;-71
2022/12/21 17:03:09;;;;;;;;;;;;;;;8.55;92.16;100945.16;20656642;28;19933;-71
2022/12/21 17:13:34;;;;;;;;;;;;;;;8.54;92.04;100921.97;20684351;28;19952;-71
2022/12/21 17:23:58;;;;;;;;;;;;;;;8.53;92.01;100948.66;20713381;23;19926;-66
2022/12/21 17:34:21;;;;;;;;;;;;;;;8.49;92.05;100935.00;20726841;28;19971;-66
2022/12/21 17:44:43;;;;;;;;;;;;;;;8.45;92.16;100930.75;20739623;28;19975;-66
2022/12/21 17:55:12;;;;;;;;;;;;;;;8.43;92.44;100932.53;20740235;28;20371;-66
2022/12/21 18:05:34;;;;;;;;;;;;;;;8.42;92.05;100917.09;20744726;28;19949;-66
2022/12/21 18:15:58;;;;;;;;;;;;;;;8.39;92.43;100904.28;20740452;28;19933;-66
2022/12/21 18:26:20;;;;;;;;;;;;;;;8.38;92.00;100882.78;20728849;28;19972;-66
2022/12/21 18:36:41;;;;;;;;;;;;;;;8.40;92.17;100865.56;20731531;28;20427;-66
2022/12/21 18:47:03;;;;;;;;;;;;;;;8.35;91.87;100877.66;20722701;28;19984;-66
2022/12/21 18:57:26;;;;;;;;;;;;;;;8.37;91.57;100875.91;20759986;28;20619;-66
2022/12/21 19:07:51;;;;;;;;;;;;;;;8.38;92.23;100866.47;20790061;28;19929;-66
2022/12/21 19:18:13;;;;;;;;;;;;;;;8.44;91.99;100874.91;20715844;28;19926;-66
2022/12/21 19:28:34;;;;;;;;;;;;;;;8.49;91.82;100859.34;20742756;28;19925;-66
2022/12/21 19:38:56;;;;;;;;;;;;;;;8.47;91.08;100848.22;20721143;28;19933;-66
2022/12/21 19:49:21;;;;;;;;;;;;;;;8.44;91.79;100825.91;20720917;28;19929;-66
2022/12/21 19:59:43;;;;;;;;;;;;;;;8.48;91.51;100832.72;20738989;28;20004;-66
2022/12/21 20:10:05;;;;;;;;;;;;;;;8.44;91.71;100818.19;20716275;28;20032;-66
2022/12/21 20:20:26;;;;;;;;;;;;;;;8.38;92.06;100810.59;20739863;28;19937;-66
2022/12/21 20:30:49;;;;;;;;;;;;;;;8.38;91.92;100804.59;20728798;28;19976;-66
2022/12/21 20:41:10;;;;;;;;;;;;;;;8.42;92.16;100783.88;20708459;28;19933;-67
2022/12/21 20:51:32;;;;;;;;;;;;;;;8.44;92.51;100774.34;20718233;28;19925;-66
2022/12/21 21:01:57;;;;;;;;;;;;;;;8.51;92.76;100762.19;20723299;28;19925;-66
2022/12/21 21:12:20;;;;;;;;;;;;;;;8.56;92.43;100763.78;20720683;28;19927;-66
2022/12/21 21:23:00;;;;;;;;;;;;;;;8.58;92.88;100756.84;20743859;28;19976;-66
2022/12/21 21:33:24;;;;;;;;;;;;;;;8.66;93.04;100748.94;20730280;28;19933;-66
2022/12/21 21:43:46;;;;;;;;;;;;;;;8.71;92.71;100737.63;20730886;28;20786;-66
2022/12/21 21:54:07;;;;;;;;;;;;;;;8.74;92.64;100721.22;20800177;28;19975;-66
2022/12/21 22:04:29;;;;;;;;;;;;;;;8.74;93.54;100716.91;20792324;28;19971;-65
2022/12/21 22:46:52;;;;;;;;;;;;;;;8.65;95.68;100683.59;20805802;28;19925;-66
2022/12/21 22:57:14;;;;;;;;;;;;;;;8.67;95.84;100671.53;20750822;28;19972;-66
2022/12/21 23:07:36;;;;;;;;;;;;;;;8.69;96.46;100656.84;20731414;28;19933;-66
2022/12/21 23:28:39;;;;;;;;;;;;;;;8.78;96.51;100629.97;20698688;28;19929;-66
